createdAt,value
2022-10-04T00:02:36.383Z,14.1
2022-10-04T00:04:43.039Z,17.9
2022-10-04T00:06:46.943Z,16.2
2022-10-04T00:08:50.890Z,13.3
2022-10-04T00:15:02.639Z,9.5
2022-10-04T00:19:13.292Z,8.9
2022-10-04T00:21:17.226Z,9.5
2022-10-04T00:23:21.114Z,5.6
2022-10-04T00:25:25.066Z,5
2022-10-04T00:27:28.998Z,10.4
2022-10-04T00:29:32.882Z,22.5
2022-10-04T00:31:36.871Z,5.4
2022-10-04T00:33:43.541Z,5.4
2022-10-04T00:35:47.465Z,21.1
2022-10-04T00:37:51.420Z,7
2022-10-04T00:50:17.857Z,8.5
2022-10-04T00:54:45.629Z,7.5
2022-10-04T00:56:49.561Z,18.3
2022-10-04T00:58:53.490Z,19.8
2022-10-04T01:01:00.309Z,9.9
2022-10-04T01:03:04.195Z,5.7
2022-10-04T01:05:08.088Z,11.7
2022-10-04T01:07:12.027Z,7.8
2022-10-04T01:09:15.947Z,16.5
2022-10-04T01:11:19.854Z,7.7
2022-10-04T01:13:23.809Z,12.9
2022-10-04T01:15:30.583Z,11.2
2022-10-04T01:17:34.474Z,10.5
2022-10-04T01:19:38.406Z,11
2022-10-04T01:21:42.609Z,12.2
2022-10-04T01:23:46.264Z,13.4
2022-10-04T01:25:50.168Z,14.3
2022-10-04T01:27:54.120Z,9.6
2022-10-04T01:30:00.870Z,8.8
2022-10-04T01:32:04.760Z,8.5
2022-10-04T01:34:08.682Z,13.5
2022-10-04T01:36:12.601Z,6.8
2022-10-04T01:38:16.533Z,8
2022-10-04T01:40:20.455Z,10.6
2022-10-04T01:42:24.365Z,12.6
2022-10-04T01:48:38.950Z,13.2
2022-10-04T01:49:42.324Z,13.1
2022-10-04T01:51:46.270Z,6.9
2022-10-04T02:02:08.354Z,15.6
2022-10-04T02:04:12.333Z,12.7
2022-10-04T02:06:16.179Z,14.7
2022-10-04T02:08:20.103Z,13
2022-10-04T02:10:24.005Z,13.4
2022-10-04T02:12:30.741Z,16
2022-10-04T02:18:42.476Z,19.1
2022-10-04T02:20:46.396Z,25.5
2022-10-04T02:22:50.303Z,22.5
2022-10-04T02:24:54.231Z,14.6
2022-10-04T02:27:00.968Z,21.6
2022-10-04T02:29:04.857Z,27.4
2022-10-04T02:31:08.868Z,14
2022-10-04T02:33:12.687Z,22.6
2022-10-04T02:35:16.595Z,19.5
2022-10-04T02:37:20.501Z,27
2022-10-04T02:41:31.132Z,22.1
2022-10-04T02:43:35.065Z,14.7
2022-10-04T02:46:42.384Z,15.8
2022-10-04T02:48:46.246Z,21.4
2022-10-04T02:50:50.126Z,16.2
2022-10-04T02:52:54.042Z,17.6
2022-10-04T02:55:00.785Z,23.2
2022-10-04T02:57:04.674Z,27.8
2022-10-04T02:59:08.628Z,13.2
2022-10-04T03:01:12.620Z,24
2022-10-04T03:03:16.432Z,18.2
2022-10-04T03:05:20.424Z,30.3
2022-10-04T03:07:24.231Z,26.9
2022-10-04T03:09:30.955Z,19.7
2022-10-04T03:11:34.851Z,27
2022-10-04T03:15:42.725Z,30.3
2022-10-04T03:19:50.430Z,19.5
2022-10-04T03:24:01.054Z,24.5
2022-10-04T03:28:08.888Z,34.1
2022-10-04T03:32:16.671Z,29.1
2022-10-04T03:34:20.576Z,15.3
2022-10-04T03:38:31.211Z,26.7
2022-10-04T03:40:35.106Z,24.3
2022-10-04T03:42:39.024Z,24.6
2022-10-04T03:47:50.211Z,26.3
2022-10-04T03:49:54.114Z,22.8
2022-10-04T03:52:00.831Z,16.9
2022-10-04T03:54:04.741Z,16.5
2022-10-04T03:56:08.629Z,19
2022-10-04T03:58:12.558Z,12.9
2022-10-04T04:00:16.471Z,14
2022-10-04T04:10:38.808Z,14.3
2022-10-04T04:12:44.218Z,20.7
2022-10-04T04:14:48.063Z,16.9
2022-10-04T04:16:51.987Z,17
2022-10-04T04:18:55.864Z,16.4
2022-10-04T04:21:02.579Z,26.3
2022-10-04T04:27:14.297Z,18.2
2022-10-04T04:31:22.147Z,14.3
2022-10-04T04:35:32.697Z,22.9
2022-10-04T04:37:36.602Z,26.4
2022-10-04T04:39:40.490Z,15.4
2022-10-04T04:42:02.493Z,19.7
2022-10-04T04:44:06.364Z,28
2022-10-04T04:46:26.682Z,16.4
2022-10-04T04:48:16.985Z,23.5
2022-10-04T04:50:20.890Z,15.4
2022-10-04T04:54:28.698Z,33.6
2022-10-04T04:56:32.566Z,21.7
2022-10-04T05:00:40.390Z,24.7
2022-10-04T05:02:47.035Z,26
2022-10-04T05:04:50.959Z,24
2022-10-04T05:06:54.849Z,34.7
2022-10-04T05:08:58.799Z,30.2
2022-10-04T05:11:02.666Z,30.3
2022-10-04T05:17:17.246Z,23.9
2022-10-04T05:23:28.892Z,26.6
2022-10-04T05:25:32.805Z,24.1
2022-10-04T05:27:36.674Z,26.7
2022-10-04T05:29:40.559Z,31.4
2022-10-04T05:31:47.307Z,29.1
2022-10-04T05:33:51.169Z,23.4
2022-10-04T05:35:55.133Z,32.4
2022-10-04T05:36:58.486Z,32.9
2022-10-04T05:39:02.355Z,27.1
2022-10-04T05:41:06.250Z,28
2022-10-04T05:43:10.167Z,33.1
2022-10-04T05:45:16.843Z,37.6
2022-10-04T05:47:20.726Z,34.3
2022-10-04T05:49:24.617Z,35.7
2022-10-04T05:51:28.487Z,42.4
2022-10-04T05:53:32.384Z,28.8
2022-10-04T05:55:36.283Z,24.5
2022-10-04T05:57:40.151Z,56.1
2022-10-04T05:59:46.849Z,29.1
2022-10-04T06:01:50.818Z,23.8
2022-10-04T06:08:02.405Z,32.7
2022-10-04T06:12:10.181Z,25.7
2022-10-04T06:14:16.859Z,28.2
2022-10-04T06:20:28.506Z,25.6
2022-10-04T06:26:40.169Z,32.4
2022-10-04T06:28:46.850Z,43.2
2022-10-04T06:30:50.779Z,34.5
2022-10-04T06:32:54.625Z,29.1
2022-10-04T06:33:57.953Z,48.8
2022-10-04T06:40:09.630Z,47.4
2022-10-04T06:42:16.327Z,40
2022-10-04T06:44:20.210Z,38.6
2022-10-04T06:46:24.164Z,31.1
2022-10-04T06:48:28.033Z,37.4
2022-10-04T06:50:31.921Z,38.2
2022-10-04T06:54:39.686Z,42.9
2022-10-04T07:02:58.128Z,48.5
2022-10-04T07:05:08.834Z,32.3
2022-10-04T07:13:20.310Z,27.6
2022-10-04T07:15:24.207Z,39.4
2022-10-04T07:17:28.077Z,42.4
2022-10-04T07:19:31.978Z,33.6
2022-10-04T07:23:39.759Z,36.4
2022-10-04T07:25:46.466Z,31.4
2022-10-04T07:27:50.419Z,30.3
2022-10-04T07:29:54.279Z,41.5
2022-10-04T07:30:57.706Z,73
2022-10-04T07:33:01.535Z,37.2
2022-10-04T07:35:05.438Z,33.2
2022-10-04T07:37:09.368Z,33.2
2022-10-04T07:39:16.073Z,28.5
2022-10-04T07:41:19.984Z,38
2022-10-04T07:43:23.890Z,22.8
2022-10-04T07:45:30.000Z,29.6
2022-10-04T07:47:31.728Z,18.3
2022-10-04T07:49:35.639Z,16.1
2022-10-04T07:51:39.903Z,25.6
2022-10-04T07:55:50.195Z,18
2022-10-04T07:57:54.128Z,8.3
2022-10-04T07:59:58.047Z,15.6
2022-10-04T08:02:02.101Z,18.5
2022-10-04T08:04:05.912Z,10.3
2022-10-04T08:06:09.839Z,14.9
2022-10-04T08:08:16.587Z,11.3
2022-10-04T08:10:20.612Z,10.6
2022-10-04T08:12:24.445Z,21
2022-10-04T08:14:28.399Z,13.6
2022-10-04T08:16:32.331Z,10.9
2022-10-04T08:20:40.200Z,10.7
2022-10-04T08:22:46.950Z,9.4
2022-10-04T08:24:53.463Z,13.7
2022-10-04T08:29:18.485Z,8.9
2022-10-04T08:31:22.601Z,11.2
2022-10-04T08:33:26.384Z,7.2
2022-10-04T08:35:33.178Z,8.5
2022-10-04T08:37:37.090Z,8.5
2022-10-04T08:39:41.017Z,13
2022-10-04T08:41:44.948Z,5.9
2022-10-04T08:43:48.903Z,8.9
2022-10-04T08:45:52.968Z,11.9
2022-10-04T08:47:56.760Z,7.9
2022-10-04T08:50:03.540Z,8.4
2022-10-04T08:52:07.457Z,8.4
2022-10-04T08:54:11.408Z,6.6
2022-10-04T08:56:15.343Z,7.5
2022-10-04T08:58:19.287Z,8.7
2022-10-04T09:00:23.234Z,6.4
2022-10-04T09:02:27.204Z,14
2022-10-04T09:04:33.925Z,11.5
2022-10-04T09:06:37.864Z,16.7
2022-10-04T09:08:41.808Z,11
2022-10-04T09:10:45.743Z,10
2022-10-04T09:12:49.685Z,14.2
2022-10-04T09:14:53.629Z,16.8
2022-10-04T09:16:57.592Z,10.1
2022-10-04T09:19:04.338Z,3.5
2022-10-04T09:21:08.279Z,4
2022-10-04T09:23:12.211Z,11.5
2022-10-04T09:24:15.597Z,20
2022-10-04T09:26:19.520Z,11
2022-10-04T09:28:23.493Z,13.1
2022-10-04T09:30:27.390Z,6.7
2022-10-04T09:34:38.102Z,8.7
2022-10-04T09:40:49.911Z,7.8
2022-10-04T09:44:57.755Z,8.6
2022-10-04T09:47:04.523Z,5.2
2022-10-04T09:49:08.440Z,6.6
2022-10-04T09:51:12.391Z,9.2
2022-10-04T09:55:20.227Z,12.8
2022-10-04T09:59:28.090Z,6.6
2022-10-04T10:03:38.778Z,4.1
2022-10-04T10:09:52.068Z,9
2022-10-04T10:11:55.966Z,9.3
2022-10-04T10:13:59.889Z,10.1
2022-10-04T10:18:10.563Z,4.5
2022-10-04T10:20:14.484Z,7.8
2022-10-04T10:21:17.870Z,8
2022-10-04T10:23:21.793Z,8.3
2022-10-04T10:25:25.722Z,6.8
2022-10-04T10:27:29.628Z,24.9
2022-10-04T10:29:36.413Z,8.6
2022-10-04T10:31:42.658Z,5
2022-10-04T10:35:48.141Z,11.7
2022-10-04T10:41:59.891Z,6.9
2022-10-04T10:46:10.609Z,6.9
2022-10-04T10:48:14.489Z,10.5
2022-10-04T10:50:18.404Z,7.6
2022-10-04T10:52:22.317Z,10.7
2022-10-04T10:54:26.225Z,12.4
2022-10-04T10:56:30.435Z,6.5
2022-10-04T11:00:40.804Z,6.9
2022-10-04T11:02:49.539Z,6.1
2022-10-04T11:04:48.600Z,9.7
2022-10-04T11:06:52.528Z,4.5
2022-10-04T11:08:56.419Z,6.6
2022-10-04T11:11:00.354Z,7.1
2022-10-04T11:13:07.108Z,14.4
2022-10-04T11:15:10.992Z,7.2
2022-10-04T11:17:14.913Z,3.2
2022-10-04T11:20:22.193Z,10.9
2022-10-04T11:24:29.999Z,6.4
2022-10-04T11:26:36.744Z,12.7
2022-10-04T11:30:44.577Z,8.9
2022-10-04T11:32:48.472Z,12.6
2022-10-04T11:34:52.388Z,4.7
2022-10-04T11:36:56.285Z,7.7
2022-10-04T11:39:00.204Z,15.5
2022-10-04T11:41:06.927Z,8.8
2022-10-04T11:43:10.850Z,7.6
2022-10-04T11:45:14.749Z,5.9
2022-10-04T11:47:18.646Z,3.7
2022-10-04T11:49:22.573Z,7.9
2022-10-04T11:51:26.474Z,6.5
2022-10-04T11:53:30.365Z,9.3
2022-10-04T11:55:37.146Z,5.6
2022-10-04T11:57:41.048Z,6.2
2022-10-04T11:59:44.948Z,5.3
2022-10-04T12:01:48.868Z,11.9
2022-10-04T12:03:53.013Z,2.2
2022-10-04T12:05:56.663Z,12.9
2022-10-04T12:08:00.557Z,8.4
2022-10-04T12:10:07.395Z,5.9
2022-10-04T12:12:11.215Z,8.7
2022-10-04T12:14:15.116Z,3.9
2022-10-04T12:20:50.559Z,5.6
2022-10-04T12:22:57.312Z,11.6
2022-10-04T12:25:01.226Z,4.7
2022-10-04T12:27:05.167Z,12.9
2022-10-04T12:29:09.054Z,8.3
2022-10-04T12:31:13.027Z,8.7
2022-10-04T12:35:20.832Z,14.9
2022-10-04T12:37:27.563Z,5.2
2022-10-04T12:39:31.501Z,4.3
2022-10-04T12:43:39.350Z,3.7
2022-10-04T12:45:43.359Z,8.8
2022-10-04T12:47:47.206Z,6.5
2022-10-04T12:49:51.151Z,3.8
2022-10-04T12:51:58.041Z,9.2
2022-10-04T12:54:01.830Z,4.1
2022-10-04T12:56:05.774Z,6.3
2022-10-04T12:58:09.697Z,8.2
2022-10-04T13:00:13.621Z,10.8
2022-10-04T13:02:17.686Z,5
2022-10-04T13:04:21.495Z,7.2
2022-10-04T13:10:36.139Z,9
2022-10-04T13:11:39.515Z,9.6
2022-10-04T13:13:43.476Z,9.5
2022-10-04T13:22:02.055Z,5.2
2022-10-04T13:24:05.960Z,14.2
2022-10-04T13:26:09.894Z,4
2022-10-04T13:28:13.853Z,7.6
2022-10-04T13:30:17.766Z,12.8
2022-10-04T13:34:28.485Z,4.9
2022-10-04T13:44:48.179Z,6.5
2022-10-04T13:46:52.114Z,4.3
2022-10-04T13:51:02.837Z,6.6
2022-10-04T13:53:06.781Z,5.6
2022-10-04T13:55:10.715Z,6.6
2022-10-04T13:57:14.659Z,10.8
2022-10-04T13:59:18.595Z,8.4
2022-10-04T14:01:22.581Z,5.2
2022-10-04T14:03:29.350Z,12.1
2022-10-04T14:05:33.231Z,6.1
2022-10-04T14:07:37.185Z,3.9
2022-10-04T14:08:40.541Z,6.4
2022-10-04T14:12:48.416Z,4.6
2022-10-04T14:14:52.360Z,5.4
2022-10-04T14:16:59.198Z,6.9
2022-10-04T14:21:07.001Z,12
2022-10-04T14:23:10.944Z,2
2022-10-04T14:25:20.310Z,3.6
2022-10-04T14:27:18.810Z,3.6
2022-10-04T14:31:31.141Z,4.8
2022-10-04T14:35:37.392Z,5.1
2022-10-04T14:37:41.321Z,5.1
2022-10-04T14:39:45.261Z,3
2022-10-04T14:41:49.228Z,4.4
2022-10-04T14:43:53.146Z,8.7
2022-10-04T14:46:00.714Z,10.1
2022-10-04T14:48:04.587Z,5.9
2022-10-04T14:54:16.417Z,5.9
2022-10-04T14:56:20.347Z,4.8
2022-10-04T14:58:24.302Z,5.9
2022-10-04T15:00:31.055Z,8
2022-10-04T15:02:35.003Z,5.3
2022-10-04T15:04:39.202Z,8.3
2022-10-04T15:09:50.219Z,6.8
2022-10-04T15:14:00.918Z,2.5
2022-10-04T15:20:12.777Z,4.2
2022-10-04T15:22:16.728Z,7.5
2022-10-04T15:24:20.664Z,5.4
2022-10-04T15:26:24.618Z,7.4
2022-10-04T15:28:31.426Z,10.2
2022-10-04T15:30:35.337Z,12.3
2022-10-04T15:32:39.281Z,12.9
2022-10-04T15:34:43.240Z,9
2022-10-04T15:36:47.652Z,15.7
2022-10-04T15:38:51.141Z,3.9
2022-10-04T15:43:01.863Z,13
2022-10-04T15:45:05.831Z,10.6
2022-10-04T15:47:09.792Z,5.1
2022-10-04T15:49:13.744Z,8.2
2022-10-04T15:51:17.658Z,3.3
2022-10-04T15:53:21.613Z,8.1
2022-10-04T15:55:25.576Z,5.9
2022-10-04T15:57:32.337Z,6.4
2022-10-04T15:59:36.310Z,9.8
2022-10-04T16:01:40.317Z,10.7
2022-10-04T16:04:10.287Z,4.5
2022-10-04T16:06:15.353Z,9.9
2022-10-04T16:08:19.260Z,4.7
2022-10-04T16:10:26.041Z,8.4
2022-10-04T16:12:29.976Z,19.2
2022-10-04T16:14:33.918Z,9.6
2022-10-04T16:16:37.878Z,6.3
2022-10-04T16:18:41.834Z,7.3
2022-10-04T16:20:45.764Z,8
2022-10-04T16:22:49.716Z,7.7
2022-10-04T16:24:56.500Z,12
2022-10-04T16:27:00.431Z,5.2
2022-10-04T16:29:04.364Z,3.8
2022-10-04T16:31:08.380Z,4.6
2022-10-04T16:33:12.298Z,5.1
2022-10-04T16:35:16.219Z,8.1
2022-10-04T16:37:20.183Z,13.9
2022-10-04T16:39:26.942Z,7.6
2022-10-04T16:41:30.898Z,6.2
2022-10-04T16:43:34.844Z,4.9
2022-10-04T16:45:38.846Z,5.8
2022-10-04T16:47:42.756Z,11.7
2022-10-04T16:49:46.705Z,16.5
2022-10-04T16:51:50.654Z,6.1
2022-10-04T16:53:57.431Z,15.9
2022-10-04T16:56:01.367Z,3.8
2022-10-04T16:58:05.322Z,6.1
2022-10-04T16:59:08.703Z,8.5
2022-10-04T17:01:12.707Z,6.1
2022-10-04T17:03:16.629Z,10.3
2022-10-04T17:05:20.581Z,7.4
2022-10-04T17:07:27.344Z,5.8
2022-10-04T17:09:31.297Z,8.5
2022-10-04T17:11:35.243Z,14.5
2022-10-04T17:13:39.179Z,8.8
2022-10-04T17:15:43.192Z,7.5
2022-10-04T17:17:47.130Z,8.8
2022-10-04T17:19:52.846Z,4.4
2022-10-04T17:24:01.766Z,6.8
2022-10-04T17:28:09.699Z,6.6
2022-10-04T17:30:13.602Z,7.6
2022-10-04T17:32:17.754Z,8.6
2022-10-04T17:34:21.494Z,7.3
2022-10-04T17:36:28.275Z,11.3
2022-10-04T17:42:40.112Z,9.9
2022-10-04T17:44:44.076Z,5.7
2022-10-04T17:46:48.584Z,12
2022-10-04T17:48:51.995Z,7
2022-10-04T17:50:58.773Z,5.5
2022-10-04T17:53:02.711Z,6.8
2022-10-04T17:55:06.665Z,5.8
2022-10-04T17:56:10.049Z,13.4
2022-10-04T18:02:21.966Z,11.6
2022-10-04T18:04:28.748Z,12.8
2022-10-04T18:06:32.631Z,5.4
2022-10-04T18:10:40.515Z,7.1
2022-10-04T18:14:48.409Z,11
2022-10-04T18:21:03.078Z,14.8
2022-10-04T18:23:07.032Z,12.4
2022-10-04T18:25:10.981Z,5.8
2022-10-04T18:27:14.907Z,6.3
2022-10-04T18:29:18.867Z,9.9
2022-10-04T18:31:22.877Z,5.4
2022-10-04T18:33:29.571Z,11.9
2022-10-04T18:39:41.414Z,6.2
2022-10-04T18:41:45.362Z,10.1
2022-10-04T18:43:49.328Z,9.2
2022-10-04T18:45:53.240Z,6.6
2022-10-04T18:48:00.045Z,6.6
2022-10-04T18:52:07.896Z,5
2022-10-04T18:55:15.248Z,5.5
2022-10-04T18:57:19.214Z,9.4
2022-10-04T18:59:23.136Z,6.4
2022-10-04T19:07:41.825Z,8.7
2022-10-04T19:09:45.760Z,5.1
2022-10-04T19:11:49.713Z,14.8
2022-10-04T19:13:53.665Z,6.2
2022-10-04T19:16:00.475Z,13.4
2022-10-04T19:20:08.328Z,8.6
2022-10-04T19:22:12.816Z,13.2
2022-10-04T19:24:16.742Z,7.4
2022-10-04T19:26:32.009Z,9.3
2022-10-04T19:28:24.752Z,5.2
2022-10-04T19:30:31.421Z,6.4
2022-10-04T19:32:35.356Z,6.9
2022-10-04T19:34:39.310Z,9.8
2022-10-04T19:36:43.657Z,8.9
2022-10-04T19:38:47.233Z,6.4
2022-10-04T19:40:51.173Z,8.5
2022-10-04T19:42:55.138Z,15.7
2022-10-04T19:45:01.897Z,8.2
2022-10-04T19:47:05.841Z,6.5
2022-10-04T19:49:09.812Z,4
2022-10-04T19:59:58.134Z,5.7
2022-10-04T20:02:02.139Z,6.4
2022-10-04T20:04:06.040Z,20.4
2022-10-04T20:12:24.671Z,6.8
2022-10-04T20:14:28.633Z,13.3
2022-10-04T20:16:32.646Z,7.6
2022-10-04T20:18:36.515Z,7.4
2022-10-04T20:20:40.467Z,9.8
2022-10-04T20:22:44.399Z,12.3
2022-10-04T20:33:06.962Z,11
2022-10-04T20:37:14.892Z,14.9
2022-10-04T20:41:25.600Z,8.4
2022-10-04T20:43:29.544Z,8.4
2022-10-04T20:46:36.935Z,18.3
2022-10-04T20:48:40.838Z,7
2022-10-04T20:50:44.810Z,8.1
2022-10-04T20:52:48.750Z,5.4
2022-10-04T20:54:55.551Z,10.2
2022-10-04T20:56:59.489Z,11.9
2022-10-04T20:59:03.430Z,8
2022-10-04T21:01:07.452Z,8.6
2022-10-04T21:03:11.364Z,7.2
2022-10-04T21:05:15.313Z,2.8
2022-10-04T21:07:19.246Z,7.2
2022-10-04T21:09:26.044Z,11.5
2022-10-04T21:11:29.975Z,6
2022-10-04T21:13:33.953Z,18.1
2022-10-04T21:15:37.921Z,5
2022-10-04T21:17:41.837Z,13.7
2022-10-04T21:19:45.798Z,13.4
2022-10-04T21:21:49.755Z,13.8
2022-10-04T21:23:56.528Z,13.6
2022-10-04T21:26:00.465Z,6.6
2022-10-04T21:28:04.476Z,13.5
2022-10-04T21:32:12.482Z,10.5
2022-10-04T21:34:34.594Z,9.8
2022-10-04T21:45:42.312Z,14.5
2022-10-04T21:47:46.188Z,8.2
2022-10-04T21:49:50.149Z,10.5
2022-10-04T21:51:56.934Z,13.9
2022-10-04T21:54:00.883Z,7.9
2022-10-04T21:56:04.829Z,11.1
2022-10-04T21:58:08.797Z,7.5
2022-10-04T22:00:12.750Z,10.1
2022-10-04T22:02:16.731Z,8.2
2022-10-04T22:04:22.136Z,12.2
2022-10-04T22:06:28.879Z,14.3
2022-10-04T22:08:32.817Z,6.7
2022-10-04T22:10:36.757Z,11
2022-10-04T22:12:40.715Z,11.6
2022-10-04T22:14:44.661Z,10.6
2022-10-04T22:16:49.239Z,9.2
2022-10-04T22:18:52.567Z,9.3
2022-10-04T22:20:59.332Z,8.2
2022-10-04T22:23:03.288Z,9.3
2022-10-04T22:25:07.242Z,10.7
2022-10-04T22:27:11.197Z,7.2
2022-10-04T22:29:15.148Z,7.4
2022-10-04T22:31:19.216Z,13.4
2022-10-04T22:33:23.077Z,6.8
2022-10-04T22:35:29.856Z,10.6
2022-10-04T22:37:33.796Z,6.3
2022-10-04T22:39:37.754Z,9.9
2022-10-04T22:40:41.120Z,10.2
2022-10-04T22:42:45.088Z,9.6
2022-10-04T22:44:50.018Z,9.3
2022-10-04T22:46:53.964Z,8
2022-10-04T22:49:00.807Z,6
2022-10-04T22:51:04.685Z,9.8
2022-10-04T22:53:08.661Z,8.6
2022-10-04T22:55:12.591Z,11.5
2022-10-04T22:57:16.537Z,9.5
2022-10-04T22:59:20.508Z,10.3
2022-10-04T23:03:31.250Z,7.3
2022-10-04T23:05:35.161Z,10.2
2022-10-04T23:07:39.107Z,9.8
2022-10-04T23:11:47.018Z,15.1
2022-10-04T23:15:54.990Z,12.3
2022-10-04T23:18:01.659Z,8.8
2022-10-04T23:20:05.621Z,14.3
2022-10-04T23:26:17.471Z,9.5
2022-10-04T23:28:21.467Z,8.2
2022-10-04T23:30:25.412Z,17.1
2022-10-04T23:32:32.130Z,13.5
2022-10-04T23:34:36.116Z,9.7
2022-10-04T23:36:40.061Z,6.5
2022-10-04T23:39:02.110Z,7.7
2022-10-04T23:41:06.025Z,7.6
2022-10-04T23:43:09.937Z,14.1
2022-10-04T23:45:16.714Z,18.6
2022-10-04T23:47:20.770Z,14.5
2022-10-04T23:49:24.615Z,10.6
2022-10-04T23:51:28.574Z,16
2022-10-04T23:53:32.508Z,9.4
2022-10-04T23:55:36.473Z,16.8
2022-10-04T23:57:40.398Z,7.1
2022-10-04T23:59:47.175Z,14.3
